sensor_id;sensor_type;location;lat;lon;timestamp;temperature;humidity
5346;DHT22;2695;49.444;11.054;2023-02-04T00:00:38;6.90;99.90
5346;DHT22;2695;49.444;11.054;2023-02-04T00:03:14;7.00;99.90
5346;DHT22;2695;49.444;11.054;2023-02-04T00:05:46;7.10;99.90
5346;DHT22;2695;49.444;11.054;2023-02-04T00:08:14;7.10;99.90
5346;DHT22;2695;49.444;11.054;2023-02-04T00:10:45;7.20;99.90
5346;DHT22;2695;49.444;11.054;2023-02-04T00:13:15;7.20;99.90
5346;DHT22;2695;49.444;11.054;2023-02-04T00:15:48;7.40;99.90
5346;DHT22;2695;49.444;11.054;2023-02-04T00:18:16;7.30;99.90
5346;DHT22;2695;49.444;11.054;2023-02-04T00:20:48;7.30;99.90
5346;DHT22;2695;49.444;11.054;2023-02-04T00:23:16;7.20;99.90
5346;DHT22;2695;49.444;11.054;2023-02-04T00:25:44;7.10;99.90
5346;DHT22;2695;49.444;11.054;2023-02-04T00:28:12;7.10;99.90
5346;DHT22;2695;49.444;11.054;2023-02-04T00:30:43;7.20;99.90
5346;DHT22;2695;49.444;11.054;2023-02-04T00:33:11;7.20;99.90
5346;DHT22;2695;49.444;11.054;2023-02-04T00:35:40;7.20;99.90
5346;DHT22;2695;49.444;11.054;2023-02-04T00:38:08;7.20;99.90
5346;DHT22;2695;49.444;11.054;2023-02-04T00:40:36;7.20;99.90
5346;DHT22;2695;49.444;11.054;2023-02-04T00:43:04;7.20;99.90
5346;DHT22;2695;49.444;11.054;2023-02-04T00:45:32;7.20;99.90
5346;DHT22;2695;49.444;11.054;2023-02-04T00:48:02;7.20;99.90
5346;DHT22;2695;49.444;11.054;2023-02-04T00:50:30;7.10;99.90
5346;DHT22;2695;49.444;11.054;2023-02-04T00:53:00;7.30;99.90
5346;DHT22;2695;49.444;11.054;2023-02-04T00:55:28;7.20;99.90
5346;DHT22;2695;49.444;11.054;2023-02-04T00:57:58;7.20;99.90
5346;DHT22;2695;49.444;11.054;2023-02-04T01:00:26;7.10;99.90
5346;DHT22;2695;49.444;11.054;2023-02-04T01:02:55;7.20;99.90
5346;DHT22;2695;49.444;11.054;2023-02-04T01:05:25;7.20;99.90
5346;DHT22;2695;49.444;11.054;2023-02-04T01:07:55;7.20;99.90
5346;DHT22;2695;49.444;11.054;2023-02-04T01:10:27;7.20;99.90
5346;DHT22;2695;49.444;11.054;2023-02-04T01:12:56;7.20;99.90
5346;DHT22;2695;49.444;11.054;2023-02-04T01:15:26;7.20;99.90
5346;DHT22;2695;49.444;11.054;2023-02-04T01:17:54;7.20;99.90
5346;DHT22;2695;49.444;11.054;2023-02-04T01:20:22;7.20;99.90
5346;DHT22;2695;49.444;11.054;2023-02-04T01:22:54;7.10;99.90
5346;DHT22;2695;49.444;11.054;2023-02-04T01:25:24;7.20;99.90
5346;DHT22;2695;49.444;11.054;2023-02-04T01:27:55;7.20;99.90
5346;DHT22;2695;49.444;11.054;2023-02-04T01:30:26;7.20;99.90
5346;DHT22;2695;49.444;11.054;2023-02-04T01:32:55;7.00;99.90
5346;DHT22;2695;49.444;11.054;2023-02-04T01:35:25;7.10;99.90
5346;DHT22;2695;49.444;11.054;2023-02-04T01:37:57;7.10;99.90
5346;DHT22;2695;49.444;11.054;2023-02-04T01:40:26;7.10;99.90
5346;DHT22;2695;49.444;11.054;2023-02-04T01:42:54;7.10;99.90
5346;DHT22;2695;49.444;11.054;2023-02-04T01:45:26;7.10;99.90
5346;DHT22;2695;49.444;11.054;2023-02-04T01:47:56;7.10;99.90
5346;DHT22;2695;49.444;11.054;2023-02-04T01:50:24;7.10;99.90
5346;DHT22;2695;49.444;11.054;2023-02-04T01:52:52;7.00;99.90
5346;DHT22;2695;49.444;11.054;2023-02-04T01:55:25;7.10;99.90
5346;DHT22;2695;49.444;11.054;2023-02-04T01:57:54;7.10;99.90
5346;DHT22;2695;49.444;11.054;2023-02-04T02:00:27;7.10;99.90
5346;DHT22;2695;49.444;11.054;2023-02-04T02:02:56;7.00;99.90
5346;DHT22;2695;49.444;11.054;2023-02-04T02:05:27;7.10;99.90
5346;DHT22;2695;49.444;11.054;2023-02-04T02:07:57;7.00;99.90
5346;DHT22;2695;49.444;11.054;2023-02-04T02:10:29;7.00;99.90
5346;DHT22;2695;49.444;11.054;2023-02-04T02:12:58;7.00;99.90
5346;DHT22;2695;49.444;11.054;2023-02-04T02:15:26;7.00;99.90
5346;DHT22;2695;49.444;11.054;2023-02-04T02:17:55;7.00;99.90
5346;DHT22;2695;49.444;11.054;2023-02-04T02:20:24;7.00;99.90
5346;DHT22;2695;49.444;11.054;2023-02-04T02:23:01;7.00;99.90
5346;DHT22;2695;49.444;11.054;2023-02-04T02:25:32;6.90;99.90
5346;DHT22;2695;49.444;11.054;2023-02-04T02:28:01;7.00;99.90
5346;DHT22;2695;49.444;11.054;2023-02-04T02:30:30;7.00;99.90
5346;DHT22;2695;49.444;11.054;2023-02-04T02:32:58;7.00;99.90
5346;DHT22;2695;49.444;11.054;2023-02-04T02:35:26;6.90;99.90
5346;DHT22;2695;49.444;11.054;2023-02-04T02:37:55;6.90;99.90
5346;DHT22;2695;49.444;11.054;2023-02-04T02:41:00;6.90;99.90
5346;DHT22;2695;49.444;11.054;2023-02-04T02:43:28;6.90;99.90
5346;DHT22;2695;49.444;11.054;2023-02-04T02:45:58;6.80;99.90
5346;DHT22;2695;49.444;11.054;2023-02-04T02:48:27;6.80;99.90
5346;DHT22;2695;49.444;11.054;2023-02-04T02:50:55;6.70;99.90
5346;DHT22;2695;49.444;11.054;2023-02-04T02:53:23;6.70;99.90
5346;DHT22;2695;49.444;11.054;2023-02-04T02:55:51;6.70;99.90
5346;DHT22;2695;49.444;11.054;2023-02-04T02:58:23;6.70;99.90
5346;DHT22;2695;49.444;11.054;2023-02-04T03:00:53;6.70;99.90
5346;DHT22;2695;49.444;11.054;2023-02-04T03:03:24;6.60;99.90
5346;DHT22;2695;49.444;11.054;2023-02-04T03:05:56;6.60;99.90
5346;DHT22;2695;49.444;11.054;2023-02-04T03:08:25;6.70;99.90
5346;DHT22;2695;49.444;11.054;2023-02-04T03:10:54;6.70;99.90
5346;DHT22;2695;49.444;11.054;2023-02-04T03:13:23;6.80;99.90
5346;DHT22;2695;49.444;11.054;2023-02-04T03:15:53;6.70;99.90
5346;DHT22;2695;49.444;11.054;2023-02-04T03:18:24;6.50;99.90
5346;DHT22;2695;49.444;11.054;2023-02-04T03:20:52;6.50;99.90
5346;DHT22;2695;49.444;11.054;2023-02-04T03:23:25;6.50;99.90
5346;DHT22;2695;49.444;11.054;2023-02-04T03:25:54;6.50;99.90
5346;DHT22;2695;49.444;11.054;2023-02-04T03:28:23;6.40;99.90
5346;DHT22;2695;49.444;11.054;2023-02-04T03:30:52;6.40;99.90
5346;DHT22;2695;49.444;11.054;2023-02-04T03:33:22;6.30;99.90
5346;DHT22;2695;49.444;11.054;2023-02-04T03:35:56;6.30;99.90
5346;DHT22;2695;49.444;11.054;2023-02-04T03:38:24;6.30;99.90
5346;DHT22;2695;49.444;11.054;2023-02-04T03:41:03;6.40;99.90
5346;DHT22;2695;49.444;11.054;2023-02-04T03:43:33;6.40;99.90
5346;DHT22;2695;49.444;11.054;2023-02-04T03:46:01;6.50;99.90
5346;DHT22;2695;49.444;11.054;2023-02-04T03:48:30;6.50;99.90
5346;DHT22;2695;49.444;11.054;2023-02-04T03:51:05;6.50;99.90
5346;DHT22;2695;49.444;11.054;2023-02-04T03:53:33;6.60;99.90
5346;DHT22;2695;49.444;11.054;2023-02-04T03:56:01;6.50;99.90
5346;DHT22;2695;49.444;11.054;2023-02-04T03:58:29;6.60;99.90
5346;DHT22;2695;49.444;11.054;2023-02-04T04:00:58;6.50;99.90
5346;DHT22;2695;49.444;11.054;2023-02-04T04:03:26;6.50;99.90
5346;DHT22;2695;49.444;11.054;2023-02-04T04:05:54;6.50;99.90
5346;DHT22;2695;49.444;11.054;2023-02-04T04:08:22;6.50;99.90
5346;DHT22;2695;49.444;11.054;2023-02-04T04:10:50;6.50;99.90
5346;DHT22;2695;49.444;11.054;2023-02-04T04:13:18;6.50;99.90
5346;DHT22;2695;49.444;11.054;2023-02-04T04:15:46;6.50;99.90
5346;DHT22;2695;49.444;11.054;2023-02-04T04:18:16;6.50;99.90
5346;DHT22;2695;49.444;11.054;2023-02-04T04:20:44;6.50;99.90
5346;DHT22;2695;49.444;11.054;2023-02-04T04:23:12;6.50;99.90
5346;DHT22;2695;49.444;11.054;2023-02-04T04:25:40;6.40;99.90
5346;DHT22;2695;49.444;11.054;2023-02-04T04:28:08;6.20;99.90
5346;DHT22;2695;49.444;11.054;2023-02-04T04:30:36;6.20;99.90
5346;DHT22;2695;49.444;11.054;2023-02-04T04:33:04;6.10;99.90
5346;DHT22;2695;49.444;11.054;2023-02-04T04:35:33;6.10;99.90
5346;DHT22;2695;49.444;11.054;2023-02-04T04:38:01;6.00;99.90
5346;DHT22;2695;49.444;11.054;2023-02-04T04:40:29;6.00;99.90
5346;DHT22;2695;49.444;11.054;2023-02-04T04:42:58;6.00;99.90
5346;DHT22;2695;49.444;11.054;2023-02-04T04:45:25;6.10;99.90
5346;DHT22;2695;49.444;11.054;2023-02-04T04:47:53;6.10;99.90
5346;DHT22;2695;49.444;11.054;2023-02-04T04:50:21;6.20;99.90
5346;DHT22;2695;49.444;11.054;2023-02-04T04:52:51;6.30;99.90
5346;DHT22;2695;49.444;11.054;2023-02-04T04:55:19;6.30;99.90
5346;DHT22;2695;49.444;11.054;2023-02-04T04:57:47;6.30;99.90
5346;DHT22;2695;49.444;11.054;2023-02-04T05:00:16;6.30;99.90
5346;DHT22;2695;49.444;11.054;2023-02-04T05:02:44;6.30;99.90
5346;DHT22;2695;49.444;11.054;2023-02-04T05:05:13;6.30;99.90
5346;DHT22;2695;49.444;11.054;2023-02-04T05:07:41;6.30;99.90
5346;DHT22;2695;49.444;11.054;2023-02-04T05:10:11;6.30;99.90
5346;DHT22;2695;49.444;11.054;2023-02-04T05:12:39;6.30;99.90
5346;DHT22;2695;49.444;11.054;2023-02-04T05:15:07;6.30;99.90
5346;DHT22;2695;49.444;11.054;2023-02-04T05:17:35;6.30;99.90
5346;DHT22;2695;49.444;11.054;2023-02-04T05:20:03;6.30;99.90
5346;DHT22;2695;49.444;11.054;2023-02-04T05:22:31;6.30;99.90
5346;DHT22;2695;49.444;11.054;2023-02-04T05:24:59;6.20;99.90
5346;DHT22;2695;49.444;11.054;2023-02-04T05:27:29;6.20;99.90
5346;DHT22;2695;49.444;11.054;2023-02-04T05:29:57;6.10;99.90
5346;DHT22;2695;49.444;11.054;2023-02-04T05:32:25;6.10;99.90
5346;DHT22;2695;49.444;11.054;2023-02-04T05:34:53;6.20;99.90
5346;DHT22;2695;49.444;11.054;2023-02-04T05:37:21;6.10;99.90
5346;DHT22;2695;49.444;11.054;2023-02-04T05:39:49;6.20;99.90
5346;DHT22;2695;49.444;11.054;2023-02-04T05:42:17;6.20;99.90
5346;DHT22;2695;49.444;11.054;2023-02-04T05:44:46;6.20;99.90
5346;DHT22;2695;49.444;11.054;2023-02-04T05:47:14;6.20;99.90
5346;DHT22;2695;49.444;11.054;2023-02-04T05:49:42;6.20;99.90
5346;DHT22;2695;49.444;11.054;2023-02-04T05:52:11;6.40;99.90
5346;DHT22;2695;49.444;11.054;2023-02-04T05:54:39;6.30;99.90
5346;DHT22;2695;49.444;11.054;2023-02-04T05:57:07;6.10;99.90
5346;DHT22;2695;49.444;11.054;2023-02-04T05:59:35;6.10;99.90
5346;DHT22;2695;49.444;11.054;2023-02-04T06:02:04;6.00;99.90
5346;DHT22;2695;49.444;11.054;2023-02-04T06:04:33;5.90;99.90
5346;DHT22;2695;49.444;11.054;2023-02-04T06:07:02;5.80;99.90
5346;DHT22;2695;49.444;11.054;2023-02-04T06:09:30;5.80;99.90
5346;DHT22;2695;49.444;11.054;2023-02-04T06:11:58;5.70;99.90
5346;DHT22;2695;49.444;11.054;2023-02-04T06:14:26;5.70;99.90
5346;DHT22;2695;49.444;11.054;2023-02-04T06:16:54;5.60;99.90
5346;DHT22;2695;49.444;11.054;2023-02-04T06:19:23;5.50;99.90
5346;DHT22;2695;49.444;11.054;2023-02-04T06:21:51;5.70;99.90
5346;DHT22;2695;49.444;11.054;2023-02-04T06:24:19;5.50;99.90
5346;DHT22;2695;49.444;11.054;2023-02-04T06:26:47;5.50;99.90
5346;DHT22;2695;49.444;11.054;2023-02-04T06:29:15;5.60;99.90
5346;DHT22;2695;49.444;11.054;2023-02-04T06:31:43;5.50;99.90
5346;DHT22;2695;49.444;11.054;2023-02-04T06:34:13;5.50;99.90
5346;DHT22;2695;49.444;11.054;2023-02-04T06:36:42;5.50;99.90
5346;DHT22;2695;49.444;11.054;2023-02-04T06:39:10;5.60;99.90
5346;DHT22;2695;49.444;11.054;2023-02-04T06:41:38;5.60;99.90
5346;DHT22;2695;49.444;11.054;2023-02-04T06:44:06;5.60;99.90
5346;DHT22;2695;49.444;11.054;2023-02-04T06:46:34;5.60;99.90
5346;DHT22;2695;49.444;11.054;2023-02-04T06:49:02;5.50;99.90
5346;DHT22;2695;49.444;11.054;2023-02-04T06:51:30;5.40;99.90
5346;DHT22;2695;49.444;11.054;2023-02-04T06:53:59;5.20;99.90
5346;DHT22;2695;49.444;11.054;2023-02-04T06:56:27;5.10;99.90
5346;DHT22;2695;49.444;11.054;2023-02-04T06:58:55;5.00;99.90
5346;DHT22;2695;49.444;11.054;2023-02-04T07:01:23;4.90;99.90
5346;DHT22;2695;49.444;11.054;2023-02-04T07:03:51;4.90;99.90
5346;DHT22;2695;49.444;11.054;2023-02-04T07:06:19;4.90;99.90
5346;DHT22;2695;49.444;11.054;2023-02-04T07:08:47;4.90;99.90
5346;DHT22;2695;49.444;11.054;2023-02-04T07:11:17;5.00;99.90
5346;DHT22;2695;49.444;11.054;2023-02-04T07:13:45;5.00;99.90
5346;DHT22;2695;49.444;11.054;2023-02-04T07:16:13;5.00;99.90
5346;DHT22;2695;49.444;11.054;2023-02-04T07:18:41;5.00;99.90
5346;DHT22;2695;49.444;11.054;2023-02-04T07:21:09;5.00;99.90
5346;DHT22;2695;49.444;11.054;2023-02-04T07:23:37;5.00;99.90
5346;DHT22;2695;49.444;11.054;2023-02-04T07:26:07;5.10;99.90
5346;DHT22;2695;49.444;11.054;2023-02-04T07:28:37;5.20;99.90
5346;DHT22;2695;49.444;11.054;2023-02-04T07:31:07;5.10;99.90
5346;DHT22;2695;49.444;11.054;2023-02-04T07:33:35;5.10;99.90
5346;DHT22;2695;49.444;11.054;2023-02-04T07:36:03;5.70;99.90
5346;DHT22;2695;49.444;11.054;2023-02-04T07:38:31;5.20;99.90
5346;DHT22;2695;49.444;11.054;2023-02-04T07:41:00;5.30;99.90
5346;DHT22;2695;49.444;11.054;2023-02-04T07:43:28;5.30;99.90
5346;DHT22;2695;49.444;11.054;2023-02-04T07:45:57;5.30;99.90
5346;DHT22;2695;49.444;11.054;2023-02-04T07:48:25;5.30;99.90
5346;DHT22;2695;49.444;11.054;2023-02-04T07:50:53;5.40;99.90
5346;DHT22;2695;49.444;11.054;2023-02-04T07:53:21;5.40;99.90
5346;DHT22;2695;49.444;11.054;2023-02-04T07:55:49;5.50;99.90
5346;DHT22;2695;49.444;11.054;2023-02-04T07:58:18;5.70;99.90
5346;DHT22;2695;49.444;11.054;2023-02-04T08:00:45;6.20;99.90
5346;DHT22;2695;49.444;11.054;2023-02-04T08:03:15;6.80;99.90
5346;DHT22;2695;49.444;11.054;2023-02-04T08:05:44;7.10;99.90
5346;DHT22;2695;49.444;11.054;2023-02-04T08:08:14;7.30;99.90
5346;DHT22;2695;49.444;11.054;2023-02-04T08:10:42;7.30;99.90
5346;DHT22;2695;49.444;11.054;2023-02-04T08:13:10;7.30;99.90
5346;DHT22;2695;49.444;11.054;2023-02-04T08:15:43;7.30;99.90
5346;DHT22;2695;49.444;11.054;2023-02-04T08:18:11;7.40;99.90
5346;DHT22;2695;49.444;11.054;2023-02-04T08:20:41;7.50;99.90
5346;DHT22;2695;49.444;11.054;2023-02-04T08:23:09;7.60;99.90
5346;DHT22;2695;49.444;11.054;2023-02-04T08:25:40;7.70;99.90
5346;DHT22;2695;49.444;11.054;2023-02-04T08:28:08;7.50;99.90
5346;DHT22;2695;49.444;11.054;2023-02-04T08:30:36;7.50;99.90
5346;DHT22;2695;49.444;11.054;2023-02-04T08:33:04;7.50;99.90
5346;DHT22;2695;49.444;11.054;2023-02-04T08:35:34;7.50;99.90
5346;DHT22;2695;49.444;11.054;2023-02-04T08:38:06;7.60;99.90
5346;DHT22;2695;49.444;11.054;2023-02-04T08:40:36;7.80;99.90
5346;DHT22;2695;49.444;11.054;2023-02-04T08:43:04;7.80;99.90
5346;DHT22;2695;49.444;11.054;2023-02-04T08:45:33;7.90;99.90
5346;DHT22;2695;49.444;11.054;2023-02-04T08:48:04;8.00;99.90
5346;DHT22;2695;49.444;11.054;2023-02-04T08:50:33;7.90;99.90
5346;DHT22;2695;49.444;11.054;2023-02-04T08:53:05;7.90;99.90
5346;DHT22;2695;49.444;11.054;2023-02-04T08:55:33;8.00;99.90
5346;DHT22;2695;49.444;11.054;2023-02-04T08:58:02;7.60;99.90
5346;DHT22;2695;49.444;11.054;2023-02-04T09:00:37;7.60;99.90
5346;DHT22;2695;49.444;11.054;2023-02-04T09:03:08;7.50;99.90
5346;DHT22;2695;49.444;11.054;2023-02-04T09:05:36;7.40;99.90
5346;DHT22;2695;49.444;11.054;2023-02-04T09:08:27;7.60;99.90
5346;DHT22;2695;49.444;11.054;2023-02-04T09:11:05;7.70;99.90
5346;DHT22;2695;49.444;11.054;2023-02-04T09:14:31;7.90;99.90
5346;DHT22;2695;49.444;11.054;2023-02-04T09:17:31;8.20;99.90
5346;DHT22;2695;49.444;11.054;2023-02-04T09:20:57;8.60;99.90
5346;DHT22;2695;49.444;11.054;2023-02-04T09:23:44;9.00;99.90
5346;DHT22;2695;49.444;11.054;2023-02-04T09:26:48;9.30;99.90
5346;DHT22;2695;49.444;11.054;2023-02-04T09:29:30;9.10;99.90
5346;DHT22;2695;49.444;11.054;2023-02-04T09:32:00;8.80;99.90
5346;DHT22;2695;49.444;11.054;2023-02-04T09:34:31;8.60;99.90
5346;DHT22;2695;49.444;11.054;2023-02-04T09:36:59;8.20;99.90
5346;DHT22;2695;49.444;11.054;2023-02-04T09:39:28;8.00;99.90
5346;DHT22;2695;49.444;11.054;2023-02-04T09:41:57;8.30;99.90
5346;DHT22;2695;49.444;11.054;2023-02-04T09:44:26;8.30;99.90
5346;DHT22;2695;49.444;11.054;2023-02-04T09:46:57;8.40;99.90
5346;DHT22;2695;49.444;11.054;2023-02-04T09:49:27;8.00;99.90
5346;DHT22;2695;49.444;11.054;2023-02-04T09:52:02;7.70;99.90
5346;DHT22;2695;49.444;11.054;2023-02-04T09:54:33;7.70;99.90
5346;DHT22;2695;49.444;11.054;2023-02-04T09:57:13;7.90;99.90
5346;DHT22;2695;49.444;11.054;2023-02-04T09:59:47;8.00;99.90
5346;DHT22;2695;49.444;11.054;2023-02-04T10:02:21;8.10;99.90
5346;DHT22;2695;49.444;11.054;2023-02-04T10:04:51;8.20;99.90
5346;DHT22;2695;49.444;11.054;2023-02-04T10:07:23;8.00;99.90
5346;DHT22;2695;49.444;11.054;2023-02-04T10:09:55;7.60;99.90
5346;DHT22;2695;49.444;11.054;2023-02-04T10:12:23;7.70;99.90
5346;DHT22;2695;49.444;11.054;2023-02-04T10:14:52;7.70;99.90
5346;DHT22;2695;49.444;11.054;2023-02-04T10:17:21;7.50;99.90
5346;DHT22;2695;49.444;11.054;2023-02-04T10:19:50;7.50;99.90
5346;DHT22;2695;49.444;11.054;2023-02-04T10:22:20;7.20;99.90
5346;DHT22;2695;49.444;11.054;2023-02-04T10:24:49;7.10;99.90
5346;DHT22;2695;49.444;11.054;2023-02-04T10:27:19;7.20;99.90
5346;DHT22;2695;49.444;11.054;2023-02-04T10:29:55;7.30;99.90
5346;DHT22;2695;49.444;11.054;2023-02-04T10:32:31;7.50;99.90
5346;DHT22;2695;49.444;11.054;2023-02-04T10:35:01;7.70;99.90
5346;DHT22;2695;49.444;11.054;2023-02-04T10:37:32;7.80;99.90
5346;DHT22;2695;49.444;11.054;2023-02-04T10:40:03;7.90;99.90
5346;DHT22;2695;49.444;11.054;2023-02-04T10:42:33;8.10;99.90
5346;DHT22;2695;49.444;11.054;2023-02-04T10:45:01;8.20;99.90
5346;DHT22;2695;49.444;11.054;2023-02-04T10:47:29;8.30;99.90
5346;DHT22;2695;49.444;11.054;2023-02-04T10:49:59;8.70;99.90
5346;DHT22;2695;49.444;11.054;2023-02-04T10:52:35;8.60;99.90
5346;DHT22;2695;49.444;11.054;2023-02-04T10:55:12;8.80;99.90
5346;DHT22;2695;49.444;11.054;2023-02-04T10:57:43;9.10;99.90
5346;DHT22;2695;49.444;11.054;2023-02-04T11:00:16;9.40;99.90
5346;DHT22;2695;49.444;11.054;2023-02-04T11:02:49;9.20;99.50
5346;DHT22;2695;49.444;11.054;2023-02-04T11:05:20;9.30;99.60
5346;DHT22;2695;49.444;11.054;2023-02-04T11:07:49;9.30;99.20
5346;DHT22;2695;49.444;11.054;2023-02-04T11:10:20;9.20;99.10
5346;DHT22;2695;49.444;11.054;2023-02-04T11:13:01;9.20;99.00
5346;DHT22;2695;49.444;11.054;2023-02-04T11:15:43;9.20;99.20
5346;DHT22;2695;49.444;11.054;2023-02-04T11:18:27;9.00;99.90
5346;DHT22;2695;49.444;11.054;2023-02-04T11:20:58;8.90;99.90
5346;DHT22;2695;49.444;11.054;2023-02-04T11:23:34;8.80;99.90
5346;DHT22;2695;49.444;11.054;2023-02-04T11:26:11;9.10;99.90
5346;DHT22;2695;49.444;11.054;2023-02-04T11:28:55;8.60;99.90
5346;DHT22;2695;49.444;11.054;2023-02-04T11:31:56;8.60;99.90
5346;DHT22;2695;49.444;11.054;2023-02-04T11:34:28;8.60;99.90
5346;DHT22;2695;49.444;11.054;2023-02-04T11:37:36;8.60;99.90
5346;DHT22;2695;49.444;11.054;2023-02-04T11:40:26;8.60;99.90
5346;DHT22;2695;49.444;11.054;2023-02-04T11:43:00;8.70;99.90
5346;DHT22;2695;49.444;11.054;2023-02-04T11:45:32;8.60;99.90
5346;DHT22;2695;49.444;11.054;2023-02-04T11:48:03;8.60;98.80
5346;DHT22;2695;49.444;11.054;2023-02-04T11:50:38;8.60;98.50
5346;DHT22;2695;49.444;11.054;2023-02-04T11:53:09;8.70;98.70
5346;DHT22;2695;49.444;11.054;2023-02-04T11:55:43;8.70;98.50
5346;DHT22;2695;49.444;11.054;2023-02-04T11:58:14;8.70;98.40
5346;DHT22;2695;49.444;11.054;2023-02-04T12:00:45;8.70;97.30
5346;DHT22;2695;49.444;11.054;2023-02-04T12:03:24;8.70;97.40
5346;DHT22;2695;49.444;11.054;2023-02-04T12:05:53;8.80;97.60
5346;DHT22;2695;49.444;11.054;2023-02-04T12:08:29;8.80;98.00
5346;DHT22;2695;49.444;11.054;2023-02-04T12:11:01;8.70;98.20
5346;DHT22;2695;49.444;11.054;2023-02-04T12:13:30;8.40;98.60
5346;DHT22;2695;49.444;11.054;2023-02-04T12:16:01;8.40;98.50
5346;DHT22;2695;49.444;11.054;2023-02-04T12:18:33;8.30;99.10
5346;DHT22;2695;49.444;11.054;2023-02-04T12:21:01;8.40;99.20
5346;DHT22;2695;49.444;11.054;2023-02-04T12:23:30;8.40;99.40
5346;DHT22;2695;49.444;11.054;2023-02-04T12:25:58;8.40;99.50
5346;DHT22;2695;49.444;11.054;2023-02-04T12:28:27;8.20;99.90
5346;DHT22;2695;49.444;11.054;2023-02-04T12:30:55;8.20;99.90
5346;DHT22;2695;49.444;11.054;2023-02-04T12:33:25;8.00;99.90
5346;DHT22;2695;49.444;11.054;2023-02-04T12:35:53;7.70;99.90
5346;DHT22;2695;49.444;11.054;2023-02-04T12:38:21;7.80;99.90
5346;DHT22;2695;49.444;11.054;2023-02-04T12:40:56;7.80;99.90
5346;DHT22;2695;49.444;11.054;2023-02-04T12:43:28;8.10;99.90
5346;DHT22;2695;49.444;11.054;2023-02-04T12:45:57;8.00;99.90
5346;DHT22;2695;49.444;11.054;2023-02-04T12:48:27;8.00;99.40
5346;DHT22;2695;49.444;11.054;2023-02-04T12:50:56;7.90;99.40
5346;DHT22;2695;49.444;11.054;2023-02-04T12:53:26;8.00;99.10
5346;DHT22;2695;49.444;11.054;2023-02-04T12:55:55;8.00;99.10
5346;DHT22;2695;49.444;11.054;2023-02-04T12:58:26;8.10;99.60
5346;DHT22;2695;49.444;11.054;2023-02-04T13:01:02;8.10;98.80
5346;DHT22;2695;49.444;11.054;2023-02-04T13:03:34;8.20;99.50
5346;DHT22;2695;49.444;11.054;2023-02-04T13:06:04;8.30;98.40
5346;DHT22;2695;49.444;11.054;2023-02-04T13:08:33;8.20;98.30
5346;DHT22;2695;49.444;11.054;2023-02-04T13:11:03;8.20;98.80
5346;DHT22;2695;49.444;11.054;2023-02-04T13:13:34;8.30;98.90
5346;DHT22;2695;49.444;11.054;2023-02-04T13:16:03;8.40;98.40
5346;DHT22;2695;49.444;11.054;2023-02-04T13:18:37;8.40;98.20
5346;DHT22;2695;49.444;11.054;2023-02-04T13:21:08;8.60;97.50
5346;DHT22;2695;49.444;11.054;2023-02-04T13:23:37;8.90;97.00
5346;DHT22;2695;49.444;11.054;2023-02-04T13:26:05;9.70;97.20
5346;DHT22;2695;49.444;11.054;2023-02-04T13:28:35;8.90;96.90
5346;DHT22;2695;49.444;11.054;2023-02-04T13:31:04;9.00;96.60
5346;DHT22;2695;49.444;11.054;2023-02-04T13:33:36;9.10;96.50
5346;DHT22;2695;49.444;11.054;2023-02-04T13:36:06;9.10;95.90
5346;DHT22;2695;49.444;11.054;2023-02-04T13:38:34;9.10;95.70
5346;DHT22;2695;49.444;11.054;2023-02-04T13:41:02;9.10;95.70
5346;DHT22;2695;49.444;11.054;2023-02-04T13:43:31;9.00;96.00
5346;DHT22;2695;49.444;11.054;2023-02-04T13:45:59;8.90;95.40
5346;DHT22;2695;49.444;11.054;2023-02-04T13:48:29;8.90;95.70
5346;DHT22;2695;49.444;11.054;2023-02-04T13:50:58;8.90;96.30
5346;DHT22;2695;49.444;11.054;2023-02-04T13:53:29;8.70;96.40
5346;DHT22;2695;49.444;11.054;2023-02-04T13:55:58;8.60;96.20
5346;DHT22;2695;49.444;11.054;2023-02-04T13:58:27;8.70;96.30
5346;DHT22;2695;49.444;11.054;2023-02-04T14:00:55;8.70;95.70
5346;DHT22;2695;49.444;11.054;2023-02-04T14:03:24;8.70;95.70
5346;DHT22;2695;49.444;11.054;2023-02-04T14:05:54;8.60;95.10
5346;DHT22;2695;49.444;11.054;2023-02-04T14:08:24;8.40;96.00
5346;DHT22;2695;49.444;11.054;2023-02-04T14:10:52;8.40;96.60
5346;DHT22;2695;49.444;11.054;2023-02-04T14:13:20;8.20;96.50
5346;DHT22;2695;49.444;11.054;2023-02-04T14:15:48;8.10;96.70
5346;DHT22;2695;49.444;11.054;2023-02-04T14:18:17;8.00;96.90
5346;DHT22;2695;49.444;11.054;2023-02-04T14:20:45;7.90;97.20
5346;DHT22;2695;49.444;11.054;2023-02-04T14:23:13;7.90;97.70
5346;DHT22;2695;49.444;11.054;2023-02-04T14:25:43;7.70;97.30
5346;DHT22;2695;49.444;11.054;2023-02-04T14:28:11;7.90;97.70
5346;DHT22;2695;49.444;11.054;2023-02-04T14:30:39;7.50;97.80
5346;DHT22;2695;49.444;11.054;2023-02-04T14:33:08;7.40;98.40
5346;DHT22;2695;49.444;11.054;2023-02-04T14:35:36;7.30;98.40
5346;DHT22;2695;49.444;11.054;2023-02-04T14:38:04;7.20;98.40
5346;DHT22;2695;49.444;11.054;2023-02-04T14:40:32;7.20;98.70
5346;DHT22;2695;49.444;11.054;2023-02-04T14:43:03;7.00;98.80
5346;DHT22;2695;49.444;11.054;2023-02-04T14:45:31;7.00;99.20
5346;DHT22;2695;49.444;11.054;2023-02-04T14:47:59;6.90;99.80
5346;DHT22;2695;49.444;11.054;2023-02-04T14:50:28;6.80;99.50
5346;DHT22;2695;49.444;11.054;2023-02-04T14:52:57;6.80;99.40
5346;DHT22;2695;49.444;11.054;2023-02-04T14:55:26;6.80;99.80
5346;DHT22;2695;49.444;11.054;2023-02-04T14:57:55;6.80;99.90
5346;DHT22;2695;49.444;11.054;2023-02-04T15:00:24;6.90;99.80
5346;DHT22;2695;49.444;11.054;2023-02-04T15:02:52;6.90;99.50
5346;DHT22;2695;49.444;11.054;2023-02-04T15:05:20;6.90;99.50
5346;DHT22;2695;49.444;11.054;2023-02-04T15:07:49;6.90;99.30
5346;DHT22;2695;49.444;11.054;2023-02-04T15:10:17;7.00;99.40
5346;DHT22;2695;49.444;11.054;2023-02-04T15:12:46;7.00;99.50
5346;DHT22;2695;49.444;11.054;2023-02-04T15:15:15;7.00;99.40
5346;DHT22;2695;49.444;11.054;2023-02-04T15:17:44;7.00;99.60
5346;DHT22;2695;49.444;11.054;2023-02-04T15:20:12;6.90;99.60
5346;DHT22;2695;49.444;11.054;2023-02-04T15:22:41;6.90;99.60
5346;DHT22;2695;49.444;11.054;2023-02-04T15:25:09;6.80;99.80
5346;DHT22;2695;49.444;11.054;2023-02-04T15:27:38;6.90;99.90
5346;DHT22;2695;49.444;11.054;2023-02-04T15:30:07;6.90;99.90
5346;DHT22;2695;49.444;11.054;2023-02-04T15:32:35;6.80;99.90
5346;DHT22;2695;49.444;11.054;2023-02-04T15:35:05;6.80;99.90
5346;DHT22;2695;49.444;11.054;2023-02-04T15:37:34;6.80;99.90
5346;DHT22;2695;49.444;11.054;2023-02-04T15:40:03;6.80;99.90
5346;DHT22;2695;49.444;11.054;2023-02-04T15:42:32;6.80;99.90
5346;DHT22;2695;49.444;11.054;2023-02-04T15:45:00;7.20;99.90
5346;DHT22;2695;49.444;11.054;2023-02-04T15:47:28;6.80;99.90
5346;DHT22;2695;49.444;11.054;2023-02-04T15:49:56;6.80;99.90
5346;DHT22;2695;49.444;11.054;2023-02-04T15:52:26;6.80;99.90
5346;DHT22;2695;49.444;11.054;2023-02-04T15:54:55;6.70;99.90
5346;DHT22;2695;49.444;11.054;2023-02-04T15:57:23;6.60;99.90
5346;DHT22;2695;49.444;11.054;2023-02-04T15:59:52;6.60;99.90
5346;DHT22;2695;49.444;11.054;2023-02-04T16:02:20;6.50;99.90
5346;DHT22;2695;49.444;11.054;2023-02-04T16:04:48;6.50;99.90
5346;DHT22;2695;49.444;11.054;2023-02-04T16:07:17;6.40;99.90
5346;DHT22;2695;49.444;11.054;2023-02-04T16:09:47;6.40;99.90
5346;DHT22;2695;49.444;11.054;2023-02-04T16:12:15;6.30;99.90
5346;DHT22;2695;49.444;11.054;2023-02-04T16:14:44;6.20;99.90
5346;DHT22;2695;49.444;11.054;2023-02-04T16:17:12;6.10;99.90
5346;DHT22;2695;49.444;11.054;2023-02-04T16:19:41;6.00;99.90
5346;DHT22;2695;49.444;11.054;2023-02-04T16:22:09;5.80;99.90